createdAt,value
2023-01-08T00:01:27.055Z,9.07
2023-01-08T00:06:31.324Z,9.08
2023-01-08T00:11:34.111Z,9.07
2023-01-08T00:16:37.002Z,9.07
2023-01-08T00:21:41.336Z,9.10
2023-01-08T00:26:44.129Z,9.07
2023-01-08T00:31:46.923Z,9.07
2023-01-08T00:36:51.429Z,9.06
2023-01-08T00:41:54.152Z,9.06
2023-01-08T00:46:57.032Z,9.07
2023-01-08T00:52:01.301Z,9.10
2023-01-08T00:57:04.196Z,9.08
2023-01-08T01:02:07.294Z,9.07
2023-01-08T01:07:12.007Z,9.09
2023-01-08T01:12:16.113Z,9.11
2023-01-08T01:17:19.139Z,9.12
2023-01-08T01:22:23.249Z,9.13
2023-01-08T01:27:26.679Z,9.13
2023-01-08T01:32:29.587Z,9.15
2023-01-08T01:37:34.065Z,9.20
2023-01-08T01:42:43.998Z,9.20
2023-01-08T01:47:48.899Z,9.20
2023-01-08T01:52:59.258Z,9.22
2023-01-08T01:58:08.214Z,9.22
2023-01-08T02:03:12.066Z,9.23
2023-01-08T02:08:25.217Z,9.27
2023-01-08T02:13:32.742Z,9.27
2023-01-08T02:18:42.159Z,9.23
2023-01-08T02:23:50.314Z,9.26
2023-01-08T02:28:59.425Z,9.27
2023-01-08T02:34:02.764Z,9.29
2023-01-08T02:39:17.732Z,9.26
2023-01-08T02:44:27.882Z,9.25
2023-01-08T02:49:35.750Z,9.20
2023-01-08T02:54:40.813Z,9.19
2023-01-08T02:59:49.551Z,9.15
2023-01-08T03:04:55.875Z,9.13
2023-01-08T03:09:58.732Z,9.08
2023-01-08T03:15:07.655Z,9.04
2023-01-08T03:20:15.517Z,9.03
2023-01-08T03:25:21.510Z,8.97
2023-01-08T03:30:26.485Z,8.91
2023-01-08T03:35:31.654Z,8.88
2023-01-08T03:40:37.794Z,8.85
2023-01-08T03:45:45.828Z,8.82
2023-01-08T03:50:49.020Z,8.78
2023-01-08T03:55:51.774Z,8.78
2023-01-08T04:00:56.321Z,8.70
2023-01-08T04:06:00.546Z,8.73
2023-01-08T04:11:03.698Z,8.65
2023-01-08T04:16:09.129Z,8.61
2023-01-08T04:21:11.871Z,8.59
2023-01-08T04:26:14.772Z,8.53
2023-01-08T04:31:19.311Z,8.57
2023-01-08T04:36:22.068Z,8.54
2023-01-08T04:41:24.889Z,8.50
2023-01-08T04:46:29.360Z,8.51
2023-01-08T04:51:32.193Z,8.50
2023-01-08T04:56:34.944Z,8.42
2023-01-08T05:01:39.283Z,8.45
2023-01-08T05:06:42.205Z,8.40
2023-01-08T05:11:45.024Z,8.36
2023-01-08T05:16:49.278Z,8.31
2023-01-08T05:21:52.184Z,8.30
2023-01-08T05:26:55.073Z,8.26
2023-01-08T05:31:59.224Z,8.25
2023-01-08T05:37:02.098Z,8.25
2023-01-08T05:42:05.571Z,8.22
2023-01-08T05:47:09.694Z,8.25
2023-01-08T05:52:12.488Z,8.16
2023-01-08T05:57:15.318Z,8.17
2023-01-08T06:02:19.473Z,8.19
2023-01-08T06:07:23.275Z,8.19
2023-01-08T06:12:26.146Z,8.11
2023-01-08T06:17:30.417Z,8.12
2023-01-08T06:22:33.787Z,8.14
2023-01-08T06:27:36.651Z,8.18
2023-01-08T06:32:40.789Z,8.16
2023-01-08T06:37:43.887Z,8.16
2023-01-08T06:42:47.504Z,8.16
2023-01-08T06:47:51.583Z,8.16
2023-01-08T06:52:55.004Z,8.18
2023-01-08T06:57:58.970Z,8.17
2023-01-08T07:03:03.231Z,8.18
2023-01-08T07:08:06.706Z,8.17
2023-01-08T07:13:09.717Z,8.18
2023-01-08T07:18:14.138Z,8.19
2023-01-08T07:23:16.969Z,8.21
2023-01-08T07:28:19.748Z,8.14
2023-01-08T07:33:24.545Z,8.21
2023-01-08T07:38:27.843Z,8.23
2023-01-08T07:43:30.936Z,8.18
2023-01-08T07:48:35.565Z,8.23
2023-01-08T07:53:39.005Z,8.25
2023-01-08T07:58:41.789Z,8.25
2023-01-08T08:03:46.084Z,8.19
2023-01-08T08:08:48.889Z,8.18
2023-01-08T08:13:52.945Z,8.17
2023-01-08T08:18:59.108Z,8.18
2023-01-08T08:24:02.259Z,8.22
2023-01-08T08:29:05.388Z,8.22
2023-01-08T08:34:09.751Z,8.25
2023-01-08T08:39:12.663Z,8.25
2023-01-08T08:44:15.476Z,8.27
2023-01-08T08:49:19.691Z,8.29
2023-01-08T08:54:22.372Z,8.31
2023-01-08T08:59:25.283Z,8.33
2023-01-08T09:04:31.621Z,8.42
2023-01-08T09:09:34.497Z,8.42
2023-01-08T09:14:37.256Z,8.46
2023-01-08T09:19:41.356Z,8.48
2023-01-08T09:24:44.204Z,8.45
2023-01-08T09:29:47.278Z,8.56
2023-01-08T09:34:51.342Z,8.54
2023-01-08T09:40:02.262Z,8.61
2023-01-08T09:45:15.472Z,8.64
2023-01-08T09:50:20.702Z,8.68
2023-01-08T09:55:24.732Z,8.68
2023-01-08T10:00:30.680Z,8.71
2023-01-08T10:05:35.689Z,8.70
2023-01-08T10:10:39.311Z,8.68
2023-01-08T10:15:42.527Z,8.92
2023-01-08T10:20:46.706Z,9.25
2023-01-08T10:25:53.971Z,9.13
2023-01-08T10:31:05.075Z,9.21
2023-01-08T10:36:13.288Z,9.37
2023-01-08T10:41:17.114Z,9.21
2023-01-08T10:46:24.758Z,9.12
2023-01-08T10:51:30.536Z,9.50
2023-01-08T10:56:43.041Z,9.91
2023-01-08T11:01:48.870Z,10.56
2023-01-08T11:06:59.533Z,9.89
2023-01-08T11:12:02.616Z,10.07
2023-01-08T11:17:11.685Z,10.65
2023-01-08T11:22:26.692Z,10.60
2023-01-08T11:27:33.113Z,11.79
2023-01-08T11:32:47.388Z,11.40
2023-01-08T11:37:58.257Z,11.00
2023-01-08T11:43:19.989Z,10.66
2023-01-08T11:48:46.585Z,10.35
2023-01-08T11:53:59.709Z,10.10
2023-01-08T11:59:13.867Z,10.22
2023-01-08T12:04:37.820Z,9.90
2023-01-08T12:09:46.804Z,10.40
2023-01-08T12:14:59.805Z,10.32
2023-01-08T12:20:18.820Z,9.90
2023-01-08T12:25:45.488Z,9.96
2023-01-08T12:31:09.145Z,9.90
2023-01-08T12:36:24.654Z,9.68
2023-01-08T12:41:31.909Z,9.82
2023-01-08T12:46:44.023Z,9.85
2023-01-08T12:51:56.387Z,10.10
2023-01-08T12:57:07.315Z,9.78
2023-01-08T13:02:24.819Z,9.69
2023-01-08T13:07:38.645Z,9.57
2023-01-08T13:12:47.243Z,9.50
2023-01-08T13:17:51.559Z,9.80
2023-01-08T13:22:55.625Z,10.11
2023-01-08T13:28:00.404Z,10.15
2023-01-08T13:33:05.866Z,10.10
2023-01-08T13:38:17.060Z,10.33
2023-01-08T13:43:24.073Z,10.03
2023-01-08T13:48:31.908Z,9.88
2023-01-08T13:53:35.176Z,9.76
2023-01-08T13:58:45.392Z,9.70
2023-01-08T14:03:49.308Z,9.72
2023-01-08T14:08:53.852Z,9.57
2023-01-08T14:13:59.097Z,9.57
2023-01-08T14:19:05.893Z,9.40
2023-01-08T14:24:16.285Z,9.47
2023-01-08T14:29:22.900Z,9.56
2023-01-08T14:34:28.962Z,9.67
2023-01-08T14:39:34.888Z,9.48
2023-01-08T14:44:42.454Z,9.46
2023-01-08T14:49:52.610Z,9.27
2023-01-08T14:55:00.947Z,9.27
2023-01-08T15:00:08.832Z,9.20
2023-01-08T15:05:18.365Z,9.07
2023-01-08T15:10:38.449Z,9.00
2023-01-08T15:15:57.772Z,8.97
2023-01-08T15:21:04.644Z,8.92
2023-01-08T15:26:11.244Z,8.87
2023-01-08T15:31:26.083Z,8.80
2023-01-08T15:36:29.189Z,8.75
2023-01-08T15:41:52.881Z,8.61
2023-01-08T15:46:57.249Z,8.57
2023-01-08T15:52:01.047Z,8.55
2023-01-08T15:57:03.974Z,8.55
2023-01-08T16:02:12.456Z,8.52
2023-01-08T16:07:15.536Z,8.49
2023-01-08T16:12:18.624Z,8.49
2023-01-08T16:17:22.789Z,8.49
2023-01-08T16:22:25.958Z,8.45
2023-01-08T16:27:33.339Z,8.42
2023-01-08T16:32:37.592Z,8.37
2023-01-08T16:37:41.003Z,8.29
2023-01-08T16:42:46.125Z,8.20
2023-01-08T16:47:51.012Z,8.14
2023-01-08T16:52:55.020Z,8.15
2023-01-08T16:57:58.222Z,8.12
2023-01-08T17:03:02.621Z,8.13
2023-01-08T17:08:06.164Z,8.11
2023-01-08T17:13:09.169Z,8.08
2023-01-08T17:18:13.992Z,8.09
2023-01-08T17:23:16.737Z,8.03
2023-01-08T17:28:19.730Z,8.04
2023-01-08T17:33:24.843Z,8.08
2023-01-08T17:38:28.477Z,8.10
2023-01-08T17:43:35.063Z,8.08
2023-01-08T17:48:41.992Z,8.07
2023-01-08T17:53:44.998Z,8.04
2023-01-08T17:58:50.006Z,8.00
2023-01-08T18:03:54.440Z,7.97
2023-01-08T18:08:57.358Z,7.92
2023-01-08T18:14:02.303Z,7.96
2023-01-08T18:19:08.048Z,7.98
2023-01-08T18:24:11.488Z,8.01
2023-01-08T18:29:14.607Z,8.05
2023-01-08T18:34:18.916Z,8.09
2023-01-08T18:39:22.522Z,8.14
2023-01-08T18:44:25.383Z,8.12
2023-01-08T18:49:29.639Z,8.14
2023-01-08T18:54:35.053Z,8.16
2023-01-08T18:59:38.696Z,8.15
2023-01-08T19:04:43.164Z,8.17
2023-01-08T19:09:46.094Z,8.18
2023-01-08T19:14:49.020Z,8.20
2023-01-08T19:19:53.290Z,8.18
2023-01-08T19:24:57.057Z,8.18
2023-01-08T19:29:59.943Z,8.18
2023-01-08T19:35:05.099Z,8.16
2023-01-08T19:40:11.973Z,8.16
2023-01-08T19:45:14.792Z,8.16
2023-01-08T19:50:20.267Z,8.13
2023-01-08T19:55:23.220Z,8.12
2023-01-08T20:00:26.284Z,8.13
2023-01-08T20:05:31.343Z,8.08
2023-01-08T20:10:34.125Z,8.08
2023-01-08T20:15:36.957Z,8.04
2023-01-08T20:20:41.069Z,7.99
2023-01-08T20:25:43.890Z,7.98
2023-01-08T20:30:47.176Z,8.00
2023-01-08T20:35:52.435Z,7.96
2023-01-08T20:40:55.292Z,7.93
2023-01-08T20:45:58.863Z,7.92
2023-01-08T20:51:05.423Z,7.87
2023-01-08T20:56:10.041Z,7.88
2023-01-08T21:01:14.536Z,7.87
2023-01-08T21:06:20.341Z,7.87
2023-01-08T21:11:24.396Z,7.86
2023-01-08T21:16:30.026Z,7.86
2023-01-08T21:21:40.019Z,7.83
2023-01-08T21:26:46.114Z,7.81
2023-01-08T21:31:49.129Z,7.82
2023-01-08T21:36:53.406Z,7.81
2023-01-08T21:42:13.656Z,7.82
2023-01-08T21:47:17.994Z,7.84
2023-01-08T21:52:39.592Z,7.85
2023-01-08T21:57:42.463Z,7.84
2023-01-08T22:02:45.468Z,7.84
2023-01-08T22:07:49.718Z,7.82
2023-01-08T22:12:52.604Z,7.80
2023-01-08T22:17:55.459Z,7.79
2023-01-08T22:22:59.673Z,7.77
2023-01-08T22:28:02.415Z,7.73
2023-01-08T22:33:05.393Z,7.68
2023-01-08T22:38:09.454Z,7.64
2023-01-08T22:43:12.202Z,7.63
2023-01-08T22:48:15.048Z,7.59
2023-01-08T22:53:19.905Z,7.56
2023-01-08T22:58:22.680Z,7.54
2023-01-08T23:03:26.065Z,7.51
2023-01-08T23:08:31.407Z,7.54
2023-01-08T23:13:34.999Z,7.55
2023-01-08T23:18:38.684Z,7.53
2023-01-08T23:23:43.737Z,7.57
2023-01-08T23:28:47.046Z,7.54
2023-01-08T23:33:50.307Z,7.54
2023-01-08T23:38:55.984Z,7.58
2023-01-08T23:44:00.940Z,7.56
2023-01-08T23:49:03.795Z,7.57
2023-01-08T23:54:08.093Z,7.52
2023-01-08T23:59:11.765Z,7.53
